sensor_id;sensor_type;location;lat;lon;timestamp;P1;durP1;ratioP1;P2;durP2;ratioP2
10882;SDS011;5494;51.796;10.952;2022-07-30T00:00:36;7.43;;;3.50;;
10882;SDS011;5494;51.796;10.952;2022-07-30T00:03:04;10.00;;;3.40;;
10882;SDS011;5494;51.796;10.952;2022-07-30T00:05:33;5.00;;;3.17;;
10882;SDS011;5494;51.796;10.952;2022-07-30T00:08:01;6.23;;;3.30;;
10882;SDS011;5494;51.796;10.952;2022-07-30T00:10:30;5.40;;;3.40;;
10882;SDS011;5494;51.796;10.952;2022-07-30T00:12:58;6.13;;;3.47;;
10882;SDS011;5494;51.796;10.952;2022-07-30T00:15:27;4.93;;;3.20;;
10882;SDS011;5494;51.796;10.952;2022-07-30T00:17:58;5.30;;;3.10;;
10882;SDS011;5494;51.796;10.952;2022-07-30T00:20:27;5.80;;;3.10;;
10882;SDS011;5494;51.796;10.952;2022-07-30T00:22:57;4.13;;;3.20;;
10882;SDS011;5494;51.796;10.952;2022-07-30T00:25:29;5.40;;;3.60;;
10882;SDS011;5494;51.796;10.952;2022-07-30T00:27:58;5.90;;;3.40;;
10882;SDS011;5494;51.796;10.952;2022-07-30T00:30:27;4.37;;;3.03;;
10882;SDS011;5494;51.796;10.952;2022-07-30T00:32:57;5.60;;;3.07;;
10882;SDS011;5494;51.796;10.952;2022-07-30T00:35:26;8.80;;;3.73;;
10882;SDS011;5494;51.796;10.952;2022-07-30T00:37:55;6.30;;;3.33;;
10882;SDS011;5494;51.796;10.952;2022-07-30T00:40:23;4.67;;;3.47;;
10882;SDS011;5494;51.796;10.952;2022-07-30T00:42:52;5.67;;;3.10;;
10882;SDS011;5494;51.796;10.952;2022-07-30T00:45:20;4.87;;;3.40;;
10882;SDS011;5494;51.796;10.952;2022-07-30T00:47:49;4.87;;;3.20;;
10882;SDS011;5494;51.796;10.952;2022-07-30T00:50:19;3.90;;;3.30;;
10882;SDS011;5494;51.796;10.952;2022-07-30T00:52:48;5.77;;;3.50;;
10882;SDS011;5494;51.796;10.952;2022-07-30T00:55:16;6.70;;;3.83;;
10882;SDS011;5494;51.796;10.952;2022-07-30T00:57:45;5.10;;;3.77;;
10882;SDS011;5494;51.796;10.952;2022-07-30T01:00:14;7.80;;;4.00;;
10882;SDS011;5494;51.796;10.952;2022-07-30T01:02:44;10.13;;;4.67;;
10882;SDS011;5494;51.796;10.952;2022-07-30T01:05:13;5.87;;;4.33;;
10882;SDS011;5494;51.796;10.952;2022-07-30T01:07:43;4.70;;;4.03;;
10882;SDS011;5494;51.796;10.952;2022-07-30T01:10:12;5.10;;;4.30;;
10882;SDS011;5494;51.796;10.952;2022-07-30T01:12:42;6.13;;;4.87;;
10882;SDS011;5494;51.796;10.952;2022-07-30T01:15:12;7.23;;;4.80;;
10882;SDS011;5494;51.796;10.952;2022-07-30T01:17:42;7.63;;;4.90;;
10882;SDS011;5494;51.796;10.952;2022-07-30T01:20:20;6.50;;;4.40;;
10882;SDS011;5494;51.796;10.952;2022-07-30T01:23:03;5.73;;;4.47;;
10882;SDS011;5494;51.796;10.952;2022-07-30T01:25:44;4.80;;;4.17;;
10882;SDS011;5494;51.796;10.952;2022-07-30T01:28:20;8.13;;;4.43;;
10882;SDS011;5494;51.796;10.952;2022-07-30T01:30:54;7.93;;;4.27;;
10882;SDS011;5494;51.796;10.952;2022-07-30T01:33:25;8.90;;;4.67;;
10882;SDS011;5494;51.796;10.952;2022-07-30T01:35:58;6.40;;;4.40;;
10882;SDS011;5494;51.796;10.952;2022-07-30T01:38:29;8.07;;;4.10;;
10882;SDS011;5494;51.796;10.952;2022-07-30T01:41:02;7.60;;;4.13;;
10882;SDS011;5494;51.796;10.952;2022-07-30T01:43:35;5.50;;;4.30;;
10882;SDS011;5494;51.796;10.952;2022-07-30T01:46:06;7.43;;;4.50;;
10882;SDS011;5494;51.796;10.952;2022-07-30T01:48:38;6.70;;;4.47;;
10882;SDS011;5494;51.796;10.952;2022-07-30T01:51:10;5.20;;;4.70;;
10882;SDS011;5494;51.796;10.952;2022-07-30T01:53:44;6.70;;;6.10;;
10882;SDS011;5494;51.796;10.952;2022-07-30T01:56:20;6.03;;;4.83;;
10882;SDS011;5494;51.796;10.952;2022-07-30T01:58:53;5.23;;;4.50;;
10882;SDS011;5494;51.796;10.952;2022-07-30T02:01:26;8.10;;;4.33;;
10882;SDS011;5494;51.796;10.952;2022-07-30T02:03:58;5.10;;;4.50;;
10882;SDS011;5494;51.796;10.952;2022-07-30T02:06:30;19.80;;;4.50;;
10882;SDS011;5494;51.796;10.952;2022-07-30T02:09:06;6.20;;;5.03;;
10882;SDS011;5494;51.796;10.952;2022-07-30T02:11:40;7.63;;;4.80;;
10882;SDS011;5494;51.796;10.952;2022-07-30T02:14:33;6.87;;;5.50;;
10882;SDS011;5494;51.796;10.952;2022-07-30T02:17:11;7.13;;;4.60;;
10882;SDS011;5494;51.796;10.952;2022-07-30T02:19:56;5.57;;;4.43;;
10882;SDS011;5494;51.796;10.952;2022-07-30T02:22:27;10.37;;;6.20;;
10882;SDS011;5494;51.796;10.952;2022-07-30T02:25:03;7.57;;;5.40;;
10882;SDS011;5494;51.796;10.952;2022-07-30T02:27:38;6.67;;;5.37;;
10882;SDS011;5494;51.796;10.952;2022-07-30T02:30:11;8.00;;;6.40;;
10882;SDS011;5494;51.796;10.952;2022-07-30T02:32:41;7.63;;;6.27;;
10882;SDS011;5494;51.796;10.952;2022-07-30T02:35:16;10.27;;;6.63;;
10882;SDS011;5494;51.796;10.952;2022-07-30T02:37:51;6.40;;;5.80;;
10882;SDS011;5494;51.796;10.952;2022-07-30T02:40:21;8.33;;;5.77;;
10882;SDS011;5494;51.796;10.952;2022-07-30T02:42:53;8.63;;;6.73;;
10882;SDS011;5494;51.796;10.952;2022-07-30T02:45:26;8.23;;;6.10;;
10882;SDS011;5494;51.796;10.952;2022-07-30T02:47:59;7.20;;;6.50;;
10882;SDS011;5494;51.796;10.952;2022-07-30T02:50:32;7.93;;;6.00;;
10882;SDS011;5494;51.796;10.952;2022-07-30T02:53:03;6.13;;;5.27;;
10882;SDS011;5494;51.796;10.952;2022-07-30T02:55:37;8.60;;;5.10;;
10882;SDS011;5494;51.796;10.952;2022-07-30T02:58:08;7.53;;;5.27;;
10882;SDS011;5494;51.796;10.952;2022-07-30T03:00:40;5.43;;;4.80;;
10882;SDS011;5494;51.796;10.952;2022-07-30T03:03:10;7.33;;;5.10;;
10882;SDS011;5494;51.796;10.952;2022-07-30T03:05:40;6.37;;;4.93;;
10882;SDS011;5494;51.796;10.952;2022-07-30T03:08:11;7.57;;;4.13;;
10882;SDS011;5494;51.796;10.952;2022-07-30T03:10:46;6.53;;;4.17;;
10882;SDS011;5494;51.796;10.952;2022-07-30T03:13:18;4.43;;;3.90;;
10882;SDS011;5494;51.796;10.952;2022-07-30T03:15:48;6.90;;;4.60;;
10882;SDS011;5494;51.796;10.952;2022-07-30T03:18:20;8.53;;;4.37;;
10882;SDS011;5494;51.796;10.952;2022-07-30T03:20:52;4.27;;;3.70;;
10882;SDS011;5494;51.796;10.952;2022-07-30T03:23:22;6.60;;;4.23;;
10882;SDS011;5494;51.796;10.952;2022-07-30T03:25:56;5.67;;;4.20;;
10882;SDS011;5494;51.796;10.952;2022-07-30T03:28:31;4.87;;;4.30;;
10882;SDS011;5494;51.796;10.952;2022-07-30T03:31:04;5.77;;;4.17;;
10882;SDS011;5494;51.796;10.952;2022-07-30T03:33:37;4.60;;;4.10;;
10882;SDS011;5494;51.796;10.952;2022-07-30T03:36:09;6.07;;;4.47;;
10882;SDS011;5494;51.796;10.952;2022-07-30T03:38:41;4.60;;;4.00;;
10882;SDS011;5494;51.796;10.952;2022-07-30T03:41:13;5.93;;;4.10;;
10882;SDS011;5494;51.796;10.952;2022-07-30T03:43:46;7.50;;;4.53;;
10882;SDS011;5494;51.796;10.952;2022-07-30T03:46:17;6.30;;;4.90;;
10882;SDS011;5494;51.796;10.952;2022-07-30T03:48:48;6.87;;;4.73;;
10882;SDS011;5494;51.796;10.952;2022-07-30T03:51:19;4.93;;;4.13;;
10882;SDS011;5494;51.796;10.952;2022-07-30T03:53:49;5.77;;;4.00;;
10882;SDS011;5494;51.796;10.952;2022-07-30T03:56:37;7.23;;;4.53;;
10882;SDS011;5494;51.796;10.952;2022-07-30T03:59:13;6.83;;;4.67;;
10882;SDS011;5494;51.796;10.952;2022-07-30T04:01:42;5.27;;;4.00;;
10882;SDS011;5494;51.796;10.952;2022-07-30T04:04:22;7.27;;;4.50;;
10882;SDS011;5494;51.796;10.952;2022-07-30T04:06:52;6.80;;;4.33;;
10882;SDS011;5494;51.796;10.952;2022-07-30T04:09:21;5.30;;;4.33;;
10882;SDS011;5494;51.796;10.952;2022-07-30T04:11:50;6.57;;;4.60;;
10882;SDS011;5494;51.796;10.952;2022-07-30T04:14:34;4.40;;;3.87;;
10882;SDS011;5494;51.796;10.952;2022-07-30T04:17:08;5.70;;;4.33;;
10882;SDS011;5494;51.796;10.952;2022-07-30T04:19:45;8.10;;;5.13;;
10882;SDS011;5494;51.796;10.952;2022-07-30T04:22:19;5.47;;;4.50;;
10882;SDS011;5494;51.796;10.952;2022-07-30T04:24:54;4.77;;;4.27;;
10882;SDS011;5494;51.796;10.952;2022-07-30T04:27:24;7.03;;;4.10;;
10882;SDS011;5494;51.796;10.952;2022-07-30T04:29:55;5.70;;;4.40;;
10882;SDS011;5494;51.796;10.952;2022-07-30T04:32:24;6.47;;;4.77;;
10882;SDS011;5494;51.796;10.952;2022-07-30T04:35:26;7.10;;;4.57;;
10882;SDS011;5494;51.796;10.952;2022-07-30T04:38:17;6.93;;;4.43;;
10882;SDS011;5494;51.796;10.952;2022-07-30T04:40:49;6.90;;;4.43;;
10882;SDS011;5494;51.796;10.952;2022-07-30T04:43:17;6.20;;;4.53;;
10882;SDS011;5494;51.796;10.952;2022-07-30T04:45:48;5.10;;;4.60;;
10882;SDS011;5494;51.796;10.952;2022-07-30T04:48:16;5.43;;;4.87;;
10882;SDS011;5494;51.796;10.952;2022-07-30T04:51:04;6.37;;;5.33;;
10882;SDS011;5494;51.796;10.952;2022-07-30T04:53:39;6.77;;;4.67;;
10882;SDS011;5494;51.796;10.952;2022-07-30T04:56:10;6.27;;;4.73;;
10882;SDS011;5494;51.796;10.952;2022-07-30T04:58:41;5.70;;;4.90;;
10882;SDS011;5494;51.796;10.952;2022-07-30T05:01:15;5.53;;;4.70;;
10882;SDS011;5494;51.796;10.952;2022-07-30T05:04:03;5.10;;;4.47;;
10882;SDS011;5494;51.796;10.952;2022-07-30T05:06:34;5.67;;;4.90;;
10882;SDS011;5494;51.796;10.952;2022-07-30T05:09:05;5.80;;;4.93;;
10882;SDS011;5494;51.796;10.952;2022-07-30T05:11:34;5.63;;;5.10;;
10882;SDS011;5494;51.796;10.952;2022-07-30T05:14:02;5.50;;;4.93;;
10882;SDS011;5494;51.796;10.952;2022-07-30T05:16:32;6.17;;;5.27;;
10882;SDS011;5494;51.796;10.952;2022-07-30T05:19:01;5.37;;;4.80;;
10882;SDS011;5494;51.796;10.952;2022-07-30T05:21:36;5.37;;;4.80;;
10882;SDS011;5494;51.796;10.952;2022-07-30T05:24:04;5.67;;;5.07;;
10882;SDS011;5494;51.796;10.952;2022-07-30T05:26:39;5.50;;;4.97;;
10882;SDS011;5494;51.796;10.952;2022-07-30T05:29:10;4.40;;;4.00;;
10882;SDS011;5494;51.796;10.952;2022-07-30T05:31:50;5.23;;;4.73;;
10882;SDS011;5494;51.796;10.952;2022-07-30T05:34:20;4.93;;;4.20;;
10882;SDS011;5494;51.796;10.952;2022-07-30T05:36:48;5.70;;;4.47;;
10882;SDS011;5494;51.796;10.952;2022-07-30T05:39:18;5.73;;;4.40;;
10882;SDS011;5494;51.796;10.952;2022-07-30T05:41:52;4.37;;;3.80;;
10882;SDS011;5494;51.796;10.952;2022-07-30T05:44:24;5.33;;;4.23;;
10882;SDS011;5494;51.796;10.952;2022-07-30T05:46:55;4.80;;;4.30;;
10882;SDS011;5494;51.796;10.952;2022-07-30T05:49:24;5.73;;;4.50;;
10882;SDS011;5494;51.796;10.952;2022-07-30T05:51:59;5.27;;;4.63;;
10882;SDS011;5494;51.796;10.952;2022-07-30T05:54:28;5.27;;;4.53;;
10882;SDS011;5494;51.796;10.952;2022-07-30T05:57:25;5.00;;;4.50;;
10882;SDS011;5494;51.796;10.952;2022-07-30T05:59:53;4.50;;;4.20;;
10882;SDS011;5494;51.796;10.952;2022-07-30T06:02:42;5.83;;;4.33;;
10882;SDS011;5494;51.796;10.952;2022-07-30T06:05:26;4.53;;;4.13;;
10882;SDS011;5494;51.796;10.952;2022-07-30T06:07:58;5.07;;;4.27;;
10882;SDS011;5494;51.796;10.952;2022-07-30T06:10:28;4.70;;;4.00;;
10882;SDS011;5494;51.796;10.952;2022-07-30T06:12:58;4.20;;;3.80;;
10882;SDS011;5494;51.796;10.952;2022-07-30T06:15:27;4.87;;;4.00;;
10882;SDS011;5494;51.796;10.952;2022-07-30T06:17:57;4.20;;;3.80;;
10882;SDS011;5494;51.796;10.952;2022-07-30T06:20:48;4.90;;;4.40;;
10882;SDS011;5494;51.796;10.952;2022-07-30T06:23:24;3.97;;;3.60;;
10882;SDS011;5494;51.796;10.952;2022-07-30T06:26:16;4.30;;;3.57;;
10882;SDS011;5494;51.796;10.952;2022-07-30T06:28:44;4.00;;;3.70;;
10882;SDS011;5494;51.796;10.952;2022-07-30T06:31:18;4.60;;;3.60;;
10882;SDS011;5494;51.796;10.952;2022-07-30T06:33:48;4.70;;;3.43;;
10882;SDS011;5494;51.796;10.952;2022-07-30T06:36:16;4.17;;;3.77;;
10882;SDS011;5494;51.796;10.952;2022-07-30T06:38:52;4.73;;;3.90;;
10882;SDS011;5494;51.796;10.952;2022-07-30T06:41:33;3.77;;;3.47;;
10882;SDS011;5494;51.796;10.952;2022-07-30T06:44:01;4.97;;;3.90;;
10882;SDS011;5494;51.796;10.952;2022-07-30T06:47:02;3.77;;;3.47;;
10882;SDS011;5494;51.796;10.952;2022-07-30T06:49:38;3.83;;;3.10;;
10882;SDS011;5494;51.796;10.952;2022-07-30T06:52:08;3.63;;;3.33;;
10882;SDS011;5494;51.796;10.952;2022-07-30T06:54:46;6.37;;;3.70;;
10882;SDS011;5494;51.796;10.952;2022-07-30T06:57:22;3.77;;;3.37;;
10882;SDS011;5494;51.796;10.952;2022-07-30T06:59:50;4.33;;;3.57;;
10882;SDS011;5494;51.796;10.952;2022-07-30T07:02:43;4.73;;;3.90;;
10882;SDS011;5494;51.796;10.952;2022-07-30T07:05:14;5.33;;;3.83;;
10882;SDS011;5494;51.796;10.952;2022-07-30T07:07:45;4.20;;;3.80;;
10882;SDS011;5494;51.796;10.952;2022-07-30T07:10:25;4.13;;;3.53;;
10882;SDS011;5494;51.796;10.952;2022-07-30T07:13:09;4.10;;;3.70;;
10882;SDS011;5494;51.796;10.952;2022-07-30T07:15:37;4.40;;;4.00;;
10882;SDS011;5494;51.796;10.952;2022-07-30T07:18:10;4.10;;;3.70;;
10882;SDS011;5494;51.796;10.952;2022-07-30T07:20:48;3.77;;;3.47;;
10882;SDS011;5494;51.796;10.952;2022-07-30T07:23:16;5.90;;;3.50;;
10882;SDS011;5494;51.796;10.952;2022-07-30T07:25:47;4.07;;;3.60;;
10882;SDS011;5494;51.796;10.952;2022-07-30T07:28:16;5.57;;;4.07;;
10882;SDS011;5494;51.796;10.952;2022-07-30T07:30:44;4.40;;;3.80;;
10882;SDS011;5494;51.796;10.952;2022-07-30T07:33:16;6.73;;;3.70;;
10882;SDS011;5494;51.796;10.952;2022-07-30T07:35:47;5.13;;;4.27;;
10882;SDS011;5494;51.796;10.952;2022-07-30T07:38:23;4.00;;;3.67;;
10882;SDS011;5494;51.796;10.952;2022-07-30T07:40:53;4.43;;;3.60;;
10882;SDS011;5494;51.796;10.952;2022-07-30T07:43:22;4.00;;;3.70;;
10882;SDS011;5494;51.796;10.952;2022-07-30T07:45:54;4.27;;;3.87;;
10882;SDS011;5494;51.796;10.952;2022-07-30T07:48:26;3.97;;;3.57;;
10882;SDS011;5494;51.796;10.952;2022-07-30T07:51:04;4.40;;;3.57;;
10882;SDS011;5494;51.796;10.952;2022-07-30T07:53:36;4.93;;;3.70;;
10882;SDS011;5494;51.796;10.952;2022-07-30T07:56:04;3.80;;;3.50;;
10882;SDS011;5494;51.796;10.952;2022-07-30T07:58:34;4.47;;;3.50;;
10882;SDS011;5494;51.796;10.952;2022-07-30T08:01:07;3.87;;;3.57;;
10882;SDS011;5494;51.796;10.952;2022-07-30T08:03:54;4.20;;;3.90;;
10882;SDS011;5494;51.796;10.952;2022-07-30T08:06:47;4.10;;;3.70;;
10882;SDS011;5494;51.796;10.952;2022-07-30T08:09:42;4.63;;;4.13;;
10882;SDS011;5494;51.796;10.952;2022-07-30T08:12:23;3.90;;;3.50;;
10882;SDS011;5494;51.796;10.952;2022-07-30T08:15:12;4.47;;;3.73;;
10882;SDS011;5494;51.796;10.952;2022-07-30T08:17:46;3.87;;;3.40;;
10882;SDS011;5494;51.796;10.952;2022-07-30T08:20:18;4.40;;;4.00;;
10882;SDS011;5494;51.796;10.952;2022-07-30T08:22:49;3.67;;;3.20;;
10882;SDS011;5494;51.796;10.952;2022-07-30T08:25:18;3.97;;;3.60;;
10882;SDS011;5494;51.796;10.952;2022-07-30T08:27:51;4.23;;;3.37;;
10882;SDS011;5494;51.796;10.952;2022-07-30T08:30:21;5.37;;;3.63;;
10882;SDS011;5494;51.796;10.952;2022-07-30T08:32:50;4.23;;;3.83;;
10882;SDS011;5494;51.796;10.952;2022-07-30T08:35:21;5.70;;;3.60;;
10882;SDS011;5494;51.796;10.952;2022-07-30T08:37:51;4.13;;;3.73;;
10882;SDS011;5494;51.796;10.952;2022-07-30T08:40:21;4.37;;;3.97;;
10882;SDS011;5494;51.796;10.952;2022-07-30T08:43:01;3.80;;;3.50;;
10882;SDS011;5494;51.796;10.952;2022-07-30T08:45:32;4.00;;;3.70;;
10882;SDS011;5494;51.796;10.952;2022-07-30T08:48:24;4.57;;;3.93;;
10882;SDS011;5494;51.796;10.952;2022-07-30T08:50:54;4.50;;;4.10;;
10882;SDS011;5494;51.796;10.952;2022-07-30T08:53:34;4.53;;;4.13;;
10882;SDS011;5494;51.796;10.952;2022-07-30T08:56:03;4.83;;;4.40;;
10882;SDS011;5494;51.796;10.952;2022-07-30T08:58:33;5.20;;;4.70;;
10882;SDS011;5494;51.796;10.952;2022-07-30T09:01:02;5.80;;;4.60;;
10882;SDS011;5494;51.796;10.952;2022-07-30T09:03:34;5.27;;;4.77;;
10882;SDS011;5494;51.796;10.952;2022-07-30T09:06:10;5.30;;;4.80;;
10882;SDS011;5494;51.796;10.952;2022-07-30T09:08:41;4.73;;;4.20;;
10882;SDS011;5494;51.796;10.952;2022-07-30T09:11:10;4.33;;;3.93;;
10882;SDS011;5494;51.796;10.952;2022-07-30T09:13:39;5.13;;;4.30;;
10882;SDS011;5494;51.796;10.952;2022-07-30T09:16:19;5.47;;;4.47;;
10882;SDS011;5494;51.796;10.952;2022-07-30T09:18:53;5.90;;;4.43;;
10882;SDS011;5494;51.796;10.952;2022-07-30T09:21:23;4.27;;;3.90;;
10882;SDS011;5494;51.796;10.952;2022-07-30T09:24:22;4.37;;;3.77;;
10882;SDS011;5494;51.796;10.952;2022-07-30T09:27:20;4.77;;;3.43;;
10882;SDS011;5494;51.796;10.952;2022-07-30T09:29:49;4.13;;;3.70;;
10882;SDS011;5494;51.796;10.952;2022-07-30T09:33:00;4.20;;;3.70;;
10882;SDS011;5494;51.796;10.952;2022-07-30T09:35:52;3.77;;;3.17;;
10882;SDS011;5494;51.796;10.952;2022-07-30T09:38:42;3.90;;;3.60;;
10882;SDS011;5494;51.796;10.952;2022-07-30T09:41:44;3.70;;;3.40;;
10882;SDS011;5494;51.796;10.952;2022-07-30T09:44:22;3.40;;;3.10;;
10882;SDS011;5494;51.796;10.952;2022-07-30T09:46:55;4.00;;;2.90;;
10882;SDS011;5494;51.796;10.952;2022-07-30T09:49:35;3.23;;;2.90;;
10882;SDS011;5494;51.796;10.952;2022-07-30T09:52:04;3.50;;;3.20;;
10882;SDS011;5494;51.796;10.952;2022-07-30T09:54:46;2.90;;;2.57;;
10882;SDS011;5494;51.796;10.952;2022-07-30T09:57:23;5.07;;;3.10;;
10882;SDS011;5494;51.796;10.952;2022-07-30T10:03:01;3.20;;;2.90;;
10882;SDS011;5494;51.796;10.952;2022-07-30T10:06:31;3.13;;;2.83;;
10882;SDS011;5494;51.796;10.952;2022-07-30T10:09:05;3.43;;;3.00;;
10882;SDS011;5494;51.796;10.952;2022-07-30T10:11:40;3.47;;;3.17;;
10882;SDS011;5494;51.796;10.952;2022-07-30T10:14:11;3.73;;;3.03;;
10882;SDS011;5494;51.796;10.952;2022-07-30T10:16:41;4.00;;;3.20;;
10882;SDS011;5494;51.796;10.952;2022-07-30T10:19:10;4.30;;;2.93;;
10882;SDS011;5494;51.796;10.952;2022-07-30T10:22:07;3.80;;;3.17;;
10882;SDS011;5494;51.796;10.952;2022-07-30T10:25:03;3.10;;;2.90;;
10882;SDS011;5494;51.796;10.952;2022-07-30T10:27:51;3.40;;;3.10;;
10882;SDS011;5494;51.796;10.952;2022-07-30T10:30:30;3.20;;;2.90;;
10882;SDS011;5494;51.796;10.952;2022-07-30T10:32:59;4.10;;;2.90;;
10882;SDS011;5494;51.796;10.952;2022-07-30T10:35:30;3.17;;;2.87;;
10882;SDS011;5494;51.796;10.952;2022-07-30T10:38:06;3.50;;;3.07;;
10882;SDS011;5494;51.796;10.952;2022-07-30T10:40:41;3.50;;;3.00;;
10882;SDS011;5494;51.796;10.952;2022-07-30T10:43:23;6.70;;;3.47;;
10882;SDS011;5494;51.796;10.952;2022-07-30T10:46:21;5.13;;;3.00;;
10882;SDS011;5494;51.796;10.952;2022-07-30T10:49:07;3.00;;;2.80;;
10882;SDS011;5494;51.796;10.952;2022-07-30T10:51:45;5.10;;;3.20;;
10882;SDS011;5494;51.796;10.952;2022-07-30T10:54:34;4.30;;;3.63;;
10882;SDS011;5494;51.796;10.952;2022-07-30T10:57:09;4.00;;;3.43;;
10882;SDS011;5494;51.796;10.952;2022-07-30T11:00:08;5.07;;;3.60;;
10882;SDS011;5494;51.796;10.952;2022-07-30T11:05:49;4.97;;;4.27;;
10882;SDS011;5494;51.796;10.952;2022-07-30T11:17:56;5.33;;;4.03;;
10882;SDS011;5494;51.796;10.952;2022-07-30T11:20:29;4.90;;;4.37;;
10882;SDS011;5494;51.796;10.952;2022-07-30T11:23:08;4.83;;;4.33;;
10882;SDS011;5494;51.796;10.952;2022-07-30T11:26:05;4.70;;;4.30;;
10882;SDS011;5494;51.796;10.952;2022-07-30T11:28:41;7.23;;;4.60;;
10882;SDS011;5494;51.796;10.952;2022-07-30T11:31:25;6.80;;;4.50;;
10882;SDS011;5494;51.796;10.952;2022-07-30T11:34:23;4.93;;;4.40;;
10882;SDS011;5494;51.796;10.952;2022-07-30T11:37:05;4.47;;;3.80;;
10882;SDS011;5494;51.796;10.952;2022-07-30T11:42:40;3.93;;;3.40;;
10882;SDS011;5494;51.796;10.952;2022-07-30T11:45:20;3.60;;;3.30;;
10882;SDS011;5494;51.796;10.952;2022-07-30T11:47:59;6.07;;;3.53;;
10882;SDS011;5494;51.796;10.952;2022-07-30T11:50:28;3.40;;;3.10;;
10882;SDS011;5494;51.796;10.952;2022-07-30T11:53:01;3.57;;;3.27;;
10882;SDS011;5494;51.796;10.952;2022-07-30T11:55:33;3.43;;;3.17;;
10882;SDS011;5494;51.796;10.952;2022-07-30T11:58:05;3.17;;;2.87;;
10882;SDS011;5494;51.796;10.952;2022-07-30T12:00:36;3.47;;;3.17;;
10882;SDS011;5494;51.796;10.952;2022-07-30T12:03:07;3.20;;;2.90;;
10882;SDS011;5494;51.796;10.952;2022-07-30T12:05:39;3.97;;;3.13;;
10882;SDS011;5494;51.796;10.952;2022-07-30T12:08:10;3.53;;;3.23;;
10882;SDS011;5494;51.796;10.952;2022-07-30T12:11:00;3.37;;;3.07;;
10882;SDS011;5494;51.796;10.952;2022-07-30T12:13:28;2.47;;;2.27;;
10882;SDS011;5494;51.796;10.952;2022-07-30T12:16:11;3.00;;;2.60;;
10882;SDS011;5494;51.796;10.952;2022-07-30T12:18:43;3.93;;;2.83;;
10882;SDS011;5494;51.796;10.952;2022-07-30T12:21:13;2.73;;;2.50;;
10882;SDS011;5494;51.796;10.952;2022-07-30T12:23:51;2.77;;;2.57;;
10882;SDS011;5494;51.796;10.952;2022-07-30T12:26:22;2.60;;;2.40;;
10882;SDS011;5494;51.796;10.952;2022-07-30T12:28:55;3.10;;;2.70;;
10882;SDS011;5494;51.796;10.952;2022-07-30T12:31:25;2.80;;;2.60;;
10882;SDS011;5494;51.796;10.952;2022-07-30T12:33:54;3.00;;;2.70;;
10882;SDS011;5494;51.796;10.952;2022-07-30T12:36:25;2.87;;;2.53;;
10882;SDS011;5494;51.796;10.952;2022-07-30T12:38:59;3.37;;;2.73;;
10882;SDS011;5494;51.796;10.952;2022-07-30T12:41:42;2.70;;;2.43;;
10882;SDS011;5494;51.796;10.952;2022-07-30T12:47:17;4.13;;;2.97;;
10882;SDS011;5494;51.796;10.952;2022-07-30T12:49:49;2.33;;;2.17;;
10882;SDS011;5494;51.796;10.952;2022-07-30T12:52:20;2.60;;;2.40;;
10882;SDS011;5494;51.796;10.952;2022-07-30T12:55:03;3.47;;;2.77;;
10882;SDS011;5494;51.796;10.952;2022-07-30T12:57:50;2.80;;;2.60;;
10882;SDS011;5494;51.796;10.952;2022-07-30T13:00:20;2.60;;;2.40;;
10882;SDS011;5494;51.796;10.952;2022-07-30T13:02:52;2.20;;;2.00;;
10882;SDS011;5494;51.796;10.952;2022-07-30T13:08:12;2.30;;;2.10;;
10882;SDS011;5494;51.796;10.952;2022-07-30T13:10:55;2.60;;;2.20;;
10882;SDS011;5494;51.796;10.952;2022-07-30T13:13:26;1.70;;;1.60;;
10882;SDS011;5494;51.796;10.952;2022-07-30T13:15:57;2.43;;;2.20;;
10882;SDS011;5494;51.796;10.952;2022-07-30T13:18:28;1.77;;;1.67;;
10882;SDS011;5494;51.796;10.952;2022-07-30T13:20:57;1.80;;;1.70;;
10882;SDS011;5494;51.796;10.952;2022-07-30T13:23:28;2.13;;;1.47;;
10882;SDS011;5494;51.796;10.952;2022-07-30T13:25:59;3.33;;;1.50;;
10882;SDS011;5494;51.796;10.952;2022-07-30T13:28:28;2.50;;;1.73;;
10882;SDS011;5494;51.796;10.952;2022-07-30T13:30:58;1.70;;;1.60;;
10882;SDS011;5494;51.796;10.952;2022-07-30T13:33:28;1.77;;;1.67;;
10882;SDS011;5494;51.796;10.952;2022-07-30T13:35:56;1.70;;;1.60;;
10882;SDS011;5494;51.796;10.952;2022-07-30T13:38:25;1.90;;;1.80;;
10882;SDS011;5494;51.796;10.952;2022-07-30T13:40:54;2.03;;;1.80;;
10882;SDS011;5494;51.796;10.952;2022-07-30T13:43:29;1.60;;;1.50;;
10882;SDS011;5494;51.796;10.952;2022-07-30T13:46:00;1.73;;;1.50;;
10882;SDS011;5494;51.796;10.952;2022-07-30T13:48:29;2.10;;;1.60;;
10882;SDS011;5494;51.796;10.952;2022-07-30T13:51:00;3.17;;;1.63;;
10882;SDS011;5494;51.796;10.952;2022-07-30T13:53:30;1.70;;;1.60;;
10882;SDS011;5494;51.796;10.952;2022-07-30T13:55:59;2.70;;;1.87;;
10882;SDS011;5494;51.796;10.952;2022-07-30T13:58:30;1.90;;;1.80;;
10882;SDS011;5494;51.796;10.952;2022-07-30T14:01:01;1.90;;;1.70;;
10882;SDS011;5494;51.796;10.952;2022-07-30T14:03:32;2.20;;;1.83;;
10882;SDS011;5494;51.796;10.952;2022-07-30T14:06:02;2.03;;;1.83;;
10882;SDS011;5494;51.796;10.952;2022-07-30T14:08:36;2.53;;;2.10;;
10882;SDS011;5494;51.796;10.952;2022-07-30T14:11:05;1.90;;;1.80;;
10882;SDS011;5494;51.796;10.952;2022-07-30T14:13:35;2.50;;;2.30;;
10882;SDS011;5494;51.796;10.952;2022-07-30T14:16:04;2.00;;;1.90;;
10882;SDS011;5494;51.796;10.952;2022-07-30T14:18:52;2.20;;;1.90;;
10882;SDS011;5494;51.796;10.952;2022-07-30T14:21:23;2.13;;;1.93;;
10882;SDS011;5494;51.796;10.952;2022-07-30T14:23:51;2.03;;;1.83;;
10882;SDS011;5494;51.796;10.952;2022-07-30T14:26:20;2.50;;;1.90;;
10882;SDS011;5494;51.796;10.952;2022-07-30T14:28:50;3.40;;;2.33;;
10882;SDS011;5494;51.796;10.952;2022-07-30T14:31:19;6.40;;;2.33;;
10882;SDS011;5494;51.796;10.952;2022-07-30T14:33:47;2.23;;;2.10;;
10882;SDS011;5494;51.796;10.952;2022-07-30T14:36:16;2.30;;;2.10;;
10882;SDS011;5494;51.796;10.952;2022-07-30T14:38:44;2.37;;;2.10;;
10882;SDS011;5494;51.796;10.952;2022-07-30T14:41:13;2.73;;;1.70;;
10882;SDS011;5494;51.796;10.952;2022-07-30T14:43:41;3.30;;;1.80;;
10882;SDS011;5494;51.796;10.952;2022-07-30T14:46:11;2.47;;;2.10;;
10882;SDS011;5494;51.796;10.952;2022-07-30T14:48:39;2.30;;;2.10;;
10882;SDS011;5494;51.796;10.952;2022-07-30T14:51:08;3.10;;;2.83;;
10882;SDS011;5494;51.796;10.952;2022-07-30T14:53:43;3.27;;;2.30;;
10882;SDS011;5494;51.796;10.952;2022-07-30T14:56:13;2.03;;;1.93;;
10882;SDS011;5494;51.796;10.952;2022-07-30T14:58:43;2.60;;;2.40;;
10882;SDS011;5494;51.796;10.952;2022-07-30T15:01:13;16.57;;;3.23;;
10882;SDS011;5494;51.796;10.952;2022-07-30T15:03:42;4.33;;;2.13;;
10882;SDS011;5494;51.796;10.952;2022-07-30T15:06:12;2.90;;;2.30;;
10882;SDS011;5494;51.796;10.952;2022-07-30T15:08:41;3.17;;;2.30;;
10882;SDS011;5494;51.796;10.952;2022-07-30T15:11:11;2.50;;;2.30;;
10882;SDS011;5494;51.796;10.952;2022-07-30T15:13:40;3.17;;;2.33;;
10882;SDS011;5494;51.796;10.952;2022-07-30T15:16:18;4.73;;;2.30;;
10882;SDS011;5494;51.796;10.952;2022-07-30T15:18:46;4.47;;;2.53;;
10882;SDS011;5494;51.796;10.952;2022-07-30T15:21:16;10.07;;;2.50;;
10882;SDS011;5494;51.796;10.952;2022-07-30T15:23:44;4.40;;;2.00;;
10882;SDS011;5494;51.796;10.952;2022-07-30T15:26:12;4.70;;;2.27;;
10882;SDS011;5494;51.796;10.952;2022-07-30T15:28:41;3.47;;;2.30;;
10882;SDS011;5494;51.796;10.952;2022-07-30T15:31:09;3.33;;;2.60;;
10882;SDS011;5494;51.796;10.952;2022-07-30T15:33:39;2.23;;;2.03;;
10882;SDS011;5494;51.796;10.952;2022-07-30T15:36:08;2.10;;;1.90;;
10882;SDS011;5494;51.796;10.952;2022-07-30T15:38:38;7.90;;;4.20;;
10882;SDS011;5494;51.796;10.952;2022-07-30T15:41:06;3.43;;;3.23;;
10882;SDS011;5494;51.796;10.952;2022-07-30T15:43:39;2.90;;;2.03;;
10882;SDS011;5494;51.796;10.952;2022-07-30T15:46:07;7.13;;;2.60;;
10882;SDS011;5494;51.796;10.952;2022-07-30T15:48:36;4.17;;;3.77;;
10882;SDS011;5494;51.796;10.952;2022-07-30T15:51:06;4.60;;;3.80;;
10882;SDS011;5494;51.796;10.952;2022-07-30T15:53:35;2.93;;;2.57;;